sensor_id;sensor_type;location;lat;lon;timestamp;P1;durP1;ratioP1;P2;durP2;ratioP2
48849;SDS011;63210;53.370;6.770;2024-02-14T00:00:29;11.68;;;6.80;;
48849;SDS011;63210;53.370;6.770;2024-02-14T00:02:54;14.40;;;8.07;;
48849;SDS011;63210;53.370;6.770;2024-02-14T00:05:20;11.02;;;6.68;;
48849;SDS011;63210;53.370;6.770;2024-02-14T00:07:45;14.55;;;7.43;;
48849;SDS011;63210;53.370;6.770;2024-02-14T00:10:14;13.52;;;8.27;;
48849;SDS011;63210;53.370;6.770;2024-02-14T00:12:42;12.90;;;8.52;;
48849;SDS011;63210;53.370;6.770;2024-02-14T00:15:08;13.05;;;8.55;;
48849;SDS011;63210;53.370;6.770;2024-02-14T00:17:35;13.10;;;8.00;;
48849;SDS011;63210;53.370;6.770;2024-02-14T00:20:03;12.48;;;8.57;;
48849;SDS011;63210;53.370;6.770;2024-02-14T00:22:30;11.15;;;8.38;;
48849;SDS011;63210;53.370;6.770;2024-02-14T00:24:56;11.82;;;7.43;;
48849;SDS011;63210;53.370;6.770;2024-02-14T00:27:24;14.77;;;8.02;;
48849;SDS011;63210;53.370;6.770;2024-02-14T00:29:52;15.25;;;8.82;;
48849;SDS011;63210;53.370;6.770;2024-02-14T00:32:19;13.57;;;8.65;;
48849;SDS011;63210;53.370;6.770;2024-02-14T00:34:44;11.52;;;8.27;;
48849;SDS011;63210;53.370;6.770;2024-02-14T00:37:10;12.75;;;8.75;;
48849;SDS011;63210;53.370;6.770;2024-02-14T00:39:35;15.30;;;9.23;;
48849;SDS011;63210;53.370;6.770;2024-02-14T00:42:01;14.45;;;8.85;;
48849;SDS011;63210;53.370;6.770;2024-02-14T00:44:27;16.05;;;8.63;;
48849;SDS011;63210;53.370;6.770;2024-02-14T00:46:56;13.90;;;8.57;;
48849;SDS011;63210;53.370;6.770;2024-02-14T00:49:24;12.73;;;8.75;;
48849;SDS011;63210;53.370;6.770;2024-02-14T00:51:49;14.63;;;9.57;;
48849;SDS011;63210;53.370;6.770;2024-02-14T00:54:14;19.63;;;10.90;;
48849;SDS011;63210;53.370;6.770;2024-02-14T00:56:40;17.70;;;10.50;;
48849;SDS011;63210;53.370;6.770;2024-02-14T00:59:05;16.80;;;10.20;;
48849;SDS011;63210;53.370;6.770;2024-02-14T01:01:31;18.90;;;13.27;;
48849;SDS011;63210;53.370;6.770;2024-02-14T01:03:56;19.17;;;11.88;;
48849;SDS011;63210;53.370;6.770;2024-02-14T01:06:21;21.23;;;13.13;;
48849;SDS011;63210;53.370;6.770;2024-02-14T01:08:47;21.52;;;15.18;;
48849;SDS011;63210;53.370;6.770;2024-02-14T01:11:12;22.23;;;15.90;;
48849;SDS011;63210;53.370;6.770;2024-02-14T01:13:38;17.80;;;12.10;;
48849;SDS011;63210;53.370;6.770;2024-02-14T01:16:04;22.60;;;15.07;;
48849;SDS011;63210;53.370;6.770;2024-02-14T01:18:29;19.58;;;12.52;;
48849;SDS011;63210;53.370;6.770;2024-02-14T01:20:55;15.88;;;11.98;;
48849;SDS011;63210;53.370;6.770;2024-02-14T01:23:20;20.80;;;14.25;;
48849;SDS011;63210;53.370;6.770;2024-02-14T01:25:45;17.85;;;12.60;;
48849;SDS011;63210;53.370;6.770;2024-02-14T01:28:11;18.30;;;12.32;;
48849;SDS011;63210;53.370;6.770;2024-02-14T01:30:36;21.30;;;13.35;;
48849;SDS011;63210;53.370;6.770;2024-02-14T01:33:02;19.03;;;12.93;;
48849;SDS011;63210;53.370;6.770;2024-02-14T01:35:28;19.05;;;13.50;;
48849;SDS011;63210;53.370;6.770;2024-02-14T01:37:54;16.85;;;11.35;;
48849;SDS011;63210;53.370;6.770;2024-02-14T01:40:20;21.67;;;15.35;;
48849;SDS011;63210;53.370;6.770;2024-02-14T01:42:45;22.17;;;15.65;;
48849;SDS011;63210;53.370;6.770;2024-02-14T01:45:11;20.42;;;13.45;;
48849;SDS011;63210;53.370;6.770;2024-02-14T01:47:37;20.48;;;15.02;;
48849;SDS011;63210;53.370;6.770;2024-02-14T01:50:04;17.67;;;10.77;;
48849;SDS011;63210;53.370;6.770;2024-02-14T01:52:30;22.13;;;13.60;;
48849;SDS011;63210;53.370;6.770;2024-02-14T01:54:55;21.63;;;14.32;;
48849;SDS011;63210;53.370;6.770;2024-02-14T01:57:21;14.88;;;11.02;;
48849;SDS011;63210;53.370;6.770;2024-02-14T01:59:48;19.67;;;13.00;;
48849;SDS011;63210;53.370;6.770;2024-02-14T02:02:14;20.45;;;12.77;;
48849;SDS011;63210;53.370;6.770;2024-02-14T02:04:41;16.23;;;11.35;;
48849;SDS011;63210;53.370;6.770;2024-02-14T02:07:06;16.63;;;11.45;;
48849;SDS011;63210;53.370;6.770;2024-02-14T02:09:32;18.83;;;13.52;;
48849;SDS011;63210;53.370;6.770;2024-02-14T02:11:59;16.10;;;10.98;;
48849;SDS011;63210;53.370;6.770;2024-02-14T02:14:25;14.02;;;9.75;;
48849;SDS011;63210;53.370;6.770;2024-02-14T02:16:51;18.42;;;11.65;;
48849;SDS011;63210;53.370;6.770;2024-02-14T02:19:17;15.13;;;11.18;;
48849;SDS011;63210;53.370;6.770;2024-02-14T02:21:42;17.33;;;12.73;;
48849;SDS011;63210;53.370;6.770;2024-02-14T02:24:11;15.23;;;11.13;;
48849;SDS011;63210;53.370;6.770;2024-02-14T02:26:36;13.32;;;10.25;;
48849;SDS011;63210;53.370;6.770;2024-02-14T02:29:01;20.23;;;11.75;;
48849;SDS011;63210;53.370;6.770;2024-02-14T02:31:27;16.45;;;11.95;;
48849;SDS011;63210;53.370;6.770;2024-02-14T02:33:52;15.45;;;10.18;;
48849;SDS011;63210;53.370;6.770;2024-02-14T02:36:17;11.52;;;9.02;;
48849;SDS011;63210;53.370;6.770;2024-02-14T02:38:43;14.73;;;12.05;;
48849;SDS011;63210;53.370;6.770;2024-02-14T02:41:09;18.48;;;10.73;;
48849;SDS011;63210;53.370;6.770;2024-02-14T02:43:34;13.63;;;10.70;;
48849;SDS011;63210;53.370;6.770;2024-02-14T02:46:00;15.43;;;11.57;;
48849;SDS011;63210;53.370;6.770;2024-02-14T02:48:25;13.32;;;10.85;;
48849;SDS011;63210;53.370;6.770;2024-02-14T02:50:50;15.35;;;11.32;;
48849;SDS011;63210;53.370;6.770;2024-02-14T02:53:16;12.70;;;10.43;;
48849;SDS011;63210;53.370;6.770;2024-02-14T02:55:41;13.15;;;10.40;;
48849;SDS011;63210;53.370;6.770;2024-02-14T02:58:08;15.30;;;10.68;;
48849;SDS011;63210;53.370;6.770;2024-02-14T03:00:33;12.57;;;9.68;;
48849;SDS011;63210;53.370;6.770;2024-02-14T03:02:59;11.73;;;9.43;;
48849;SDS011;63210;53.370;6.770;2024-02-14T03:05:24;12.35;;;9.63;;
48849;SDS011;63210;53.370;6.770;2024-02-14T03:07:50;12.40;;;9.15;;
48849;SDS011;63210;53.370;6.770;2024-02-14T03:10:17;13.60;;;10.25;;
48849;SDS011;63210;53.370;6.770;2024-02-14T03:12:49;12.82;;;8.80;;
48849;SDS011;63210;53.370;6.770;2024-02-14T03:15:14;11.88;;;9.48;;
48849;SDS011;63210;53.370;6.770;2024-02-14T03:17:40;10.90;;;8.48;;
48849;SDS011;63210;53.370;6.770;2024-02-14T03:20:05;14.98;;;11.38;;
48849;SDS011;63210;53.370;6.770;2024-02-14T03:22:35;12.85;;;10.02;;
48849;SDS011;63210;53.370;6.770;2024-02-14T03:25:01;13.70;;;9.98;;
48849;SDS011;63210;53.370;6.770;2024-02-14T03:27:26;12.80;;;9.98;;
48849;SDS011;63210;53.370;6.770;2024-02-14T03:29:52;11.98;;;9.10;;
48849;SDS011;63210;53.370;6.770;2024-02-14T03:32:17;14.27;;;9.77;;
48849;SDS011;63210;53.370;6.770;2024-02-14T03:34:42;13.77;;;10.48;;
48849;SDS011;63210;53.370;6.770;2024-02-14T03:37:08;12.70;;;9.25;;
48849;SDS011;63210;53.370;6.770;2024-02-14T03:39:33;13.77;;;9.65;;
48849;SDS011;63210;53.370;6.770;2024-02-14T03:41:58;14.55;;;9.45;;
48849;SDS011;63210;53.370;6.770;2024-02-14T03:44:27;16.40;;;10.20;;
48849;SDS011;63210;53.370;6.770;2024-02-14T03:46:53;15.20;;;9.43;;
48849;SDS011;63210;53.370;6.770;2024-02-14T03:49:18;13.27;;;9.20;;
48849;SDS011;63210;53.370;6.770;2024-02-14T03:51:44;16.05;;;10.65;;
48849;SDS011;63210;53.370;6.770;2024-02-14T03:54:11;12.63;;;8.80;;
48849;SDS011;63210;53.370;6.770;2024-02-14T03:56:36;16.17;;;9.85;;
48849;SDS011;63210;53.370;6.770;2024-02-14T03:59:02;11.43;;;7.97;;
48849;SDS011;63210;53.370;6.770;2024-02-14T04:01:30;14.25;;;9.95;;
48849;SDS011;63210;53.370;6.770;2024-02-14T04:03:56;12.82;;;8.52;;
48849;SDS011;63210;53.370;6.770;2024-02-14T04:06:22;14.30;;;9.65;;
48849;SDS011;63210;53.370;6.770;2024-02-14T04:08:47;11.15;;;7.95;;
48849;SDS011;63210;53.370;6.770;2024-02-14T04:11:14;11.00;;;7.82;;
48849;SDS011;63210;53.370;6.770;2024-02-14T04:13:39;11.27;;;7.85;;
48849;SDS011;63210;53.370;6.770;2024-02-14T04:16:06;11.88;;;8.48;;
48849;SDS011;63210;53.370;6.770;2024-02-14T04:18:31;11.18;;;6.50;;
48849;SDS011;63210;53.370;6.770;2024-02-14T04:20:56;11.80;;;7.55;;
48849;SDS011;63210;53.370;6.770;2024-02-14T04:23:22;9.98;;;7.03;;
48849;SDS011;63210;53.370;6.770;2024-02-14T04:25:48;12.15;;;8.02;;
48849;SDS011;63210;53.370;6.770;2024-02-14T04:28:13;9.05;;;6.72;;
48849;SDS011;63210;53.370;6.770;2024-02-14T04:30:39;10.60;;;7.45;;
48849;SDS011;63210;53.370;6.770;2024-02-14T04:33:04;10.95;;;7.65;;
48849;SDS011;63210;53.370;6.770;2024-02-14T04:35:30;7.20;;;5.45;;
48849;SDS011;63210;53.370;6.770;2024-02-14T04:37:56;7.88;;;5.53;;
48849;SDS011;63210;53.370;6.770;2024-02-14T04:40:21;8.73;;;6.30;;
48849;SDS011;63210;53.370;6.770;2024-02-14T04:42:47;9.80;;;6.35;;
48849;SDS011;63210;53.370;6.770;2024-02-14T04:45:12;8.23;;;6.13;;
48849;SDS011;63210;53.370;6.770;2024-02-14T04:47:41;11.15;;;6.90;;
48849;SDS011;63210;53.370;6.770;2024-02-14T04:50:07;10.20;;;6.75;;
48849;SDS011;63210;53.370;6.770;2024-02-14T04:52:33;8.73;;;6.22;;
48849;SDS011;63210;53.370;6.770;2024-02-14T04:54:58;11.85;;;6.82;;
48849;SDS011;63210;53.370;6.770;2024-02-14T04:57:23;8.88;;;6.00;;
48849;SDS011;63210;53.370;6.770;2024-02-14T04:59:49;11.18;;;6.35;;
48849;SDS011;63210;53.370;6.770;2024-02-14T05:02:15;11.82;;;7.60;;
48849;SDS011;63210;53.370;6.770;2024-02-14T05:04:40;9.60;;;6.65;;
48849;SDS011;63210;53.370;6.770;2024-02-14T05:07:06;9.57;;;6.75;;
48849;SDS011;63210;53.370;6.770;2024-02-14T05:09:31;11.77;;;7.50;;
48849;SDS011;63210;53.370;6.770;2024-02-14T05:11:57;9.95;;;6.68;;
48849;SDS011;63210;53.370;6.770;2024-02-14T05:14:23;11.40;;;7.22;;
48849;SDS011;63210;53.370;6.770;2024-02-14T05:16:48;11.15;;;7.53;;
48849;SDS011;63210;53.370;6.770;2024-02-14T05:19:13;12.85;;;7.65;;
48849;SDS011;63210;53.370;6.770;2024-02-14T05:21:39;13.18;;;8.77;;
48849;SDS011;63210;53.370;6.770;2024-02-14T05:24:04;13.57;;;8.38;;
48849;SDS011;63210;53.370;6.770;2024-02-14T05:26:30;13.90;;;8.30;;
48849;SDS011;63210;53.370;6.770;2024-02-14T05:28:55;13.35;;;8.27;;
48849;SDS011;63210;53.370;6.770;2024-02-14T05:31:20;12.50;;;7.85;;
48849;SDS011;63210;53.370;6.770;2024-02-14T05:33:46;14.63;;;8.68;;
48849;SDS011;63210;53.370;6.770;2024-02-14T05:36:11;14.02;;;8.45;;
48849;SDS011;63210;53.370;6.770;2024-02-14T05:38:36;13.82;;;8.68;;
48849;SDS011;63210;53.370;6.770;2024-02-14T05:41:01;13.73;;;8.25;;
48849;SDS011;63210;53.370;6.770;2024-02-14T05:43:27;13.73;;;8.00;;
48849;SDS011;63210;53.370;6.770;2024-02-14T05:45:52;13.20;;;7.75;;
48849;SDS011;63210;53.370;6.770;2024-02-14T05:48:19;13.77;;;8.50;;
48849;SDS011;63210;53.370;6.770;2024-02-14T05:50:44;11.93;;;8.07;;
48849;SDS011;63210;53.370;6.770;2024-02-14T05:53:10;11.75;;;7.70;;
48849;SDS011;63210;53.370;6.770;2024-02-14T05:55:37;18.70;;;8.15;;
48849;SDS011;63210;53.370;6.770;2024-02-14T05:58:02;14.57;;;7.70;;
48849;SDS011;63210;53.370;6.770;2024-02-14T06:00:28;13.77;;;7.88;;
48849;SDS011;63210;53.370;6.770;2024-02-14T06:02:53;16.00;;;8.32;;
48849;SDS011;63210;53.370;6.770;2024-02-14T06:05:19;16.65;;;8.80;;
48849;SDS011;63210;53.370;6.770;2024-02-14T06:07:45;15.68;;;8.63;;
48849;SDS011;63210;53.370;6.770;2024-02-14T06:10:10;14.30;;;7.53;;
48849;SDS011;63210;53.370;6.770;2024-02-14T06:12:36;18.27;;;9.48;;
48849;SDS011;63210;53.370;6.770;2024-02-14T06:15:01;16.35;;;8.45;;
48849;SDS011;63210;53.370;6.770;2024-02-14T06:17:28;15.05;;;8.00;;
48849;SDS011;63210;53.370;6.770;2024-02-14T06:19:53;16.63;;;7.82;;
48849;SDS011;63210;53.370;6.770;2024-02-14T06:22:19;15.77;;;8.10;;
48849;SDS011;63210;53.370;6.770;2024-02-14T06:24:45;17.20;;;8.23;;
48849;SDS011;63210;53.370;6.770;2024-02-14T06:27:10;15.30;;;7.55;;
48849;SDS011;63210;53.370;6.770;2024-02-14T06:29:36;11.40;;;6.85;;
48849;SDS011;63210;53.370;6.770;2024-02-14T06:32:01;12.27;;;6.80;;
48849;SDS011;63210;53.370;6.770;2024-02-14T06:34:26;11.85;;;6.80;;
48849;SDS011;63210;53.370;6.770;2024-02-14T06:36:54;12.30;;;6.47;;
48849;SDS011;63210;53.370;6.770;2024-02-14T06:39:20;24.95;;;19.08;;
48849;SDS011;63210;53.370;6.770;2024-02-14T06:41:45;14.48;;;8.68;;
48849;SDS011;63210;53.370;6.770;2024-02-14T06:44:12;84.03;;;51.33;;
48849;SDS011;63210;53.370;6.770;2024-02-14T06:46:38;223.52;;;123.45;;
48849;SDS011;63210;53.370;6.770;2024-02-14T06:49:03;21.65;;;17.17;;
48849;SDS011;63210;53.370;6.770;2024-02-14T06:51:30;19.88;;;15.63;;
48849;SDS011;63210;53.370;6.770;2024-02-14T06:53:55;20.17;;;18.02;;
48849;SDS011;63210;53.370;6.770;2024-02-14T06:56:21;39.58;;;34.90;;
48849;SDS011;63210;53.370;6.770;2024-02-14T06:58:46;21.85;;;18.65;;
48849;SDS011;63210;53.370;6.770;2024-02-14T07:01:11;12.45;;;10.68;;
48849;SDS011;63210;53.370;6.770;2024-02-14T07:03:39;11.50;;;8.75;;
48849;SDS011;63210;53.370;6.770;2024-02-14T07:06:05;14.43;;;10.00;;
48849;SDS011;63210;53.370;6.770;2024-02-14T07:08:31;10.85;;;7.75;;
48849;SDS011;63210;53.370;6.770;2024-02-14T07:10:56;18.38;;;11.93;;
48849;SDS011;63210;53.370;6.770;2024-02-14T07:13:21;17.58;;;14.68;;
48849;SDS011;63210;53.370;6.770;2024-02-14T07:15:52;21.52;;;17.33;;
48849;SDS011;63210;53.370;6.770;2024-02-14T07:20:43;31.07;;;22.07;;
48849;SDS011;63210;53.370;6.770;2024-02-14T07:23:08;45.53;;;31.58;;
48849;SDS011;63210;53.370;6.770;2024-02-14T07:25:33;54.60;;;40.35;;
48849;SDS011;63210;53.370;6.770;2024-02-14T07:27:59;45.13;;;19.52;;
48849;SDS011;63210;53.370;6.770;2024-02-14T07:30:24;30.13;;;11.80;;
48849;SDS011;63210;53.370;6.770;2024-02-14T07:32:49;46.10;;;14.02;;
48849;SDS011;63210;53.370;6.770;2024-02-14T07:35:17;64.03;;;41.75;;
48849;SDS011;63210;53.370;6.770;2024-02-14T07:37:42;41.17;;;16.45;;
48849;SDS011;63210;53.370;6.770;2024-02-14T07:40:09;37.80;;;11.50;;
48849;SDS011;63210;53.370;6.770;2024-02-14T07:42:35;51.53;;;24.40;;
48849;SDS011;63210;53.370;6.770;2024-02-14T07:45:00;67.20;;;43.00;;
48849;SDS011;63210;53.370;6.770;2024-02-14T07:47:28;44.25;;;18.85;;
48849;SDS011;63210;53.370;6.770;2024-02-14T07:49:56;59.60;;;15.73;;
48849;SDS011;63210;53.370;6.770;2024-02-14T07:52:22;47.53;;;20.23;;
48849;SDS011;63210;53.370;6.770;2024-02-14T07:54:51;53.67;;;17.83;;
48849;SDS011;63210;53.370;6.770;2024-02-14T07:57:16;54.25;;;16.20;;
48849;SDS011;63210;53.370;6.770;2024-02-14T07:59:41;47.77;;;12.37;;
48849;SDS011;63210;53.370;6.770;2024-02-14T08:02:06;47.83;;;11.15;;
48849;SDS011;63210;53.370;6.770;2024-02-14T08:04:32;55.97;;;12.80;;
48849;SDS011;63210;53.370;6.770;2024-02-14T08:06:57;46.65;;;10.50;;
48849;SDS011;63210;53.370;6.770;2024-02-14T08:09:22;47.13;;;9.80;;
48849;SDS011;63210;53.370;6.770;2024-02-14T08:11:48;60.42;;;16.35;;
48849;SDS011;63210;53.370;6.770;2024-02-14T08:14:17;48.55;;;12.15;;
48849;SDS011;63210;53.370;6.770;2024-02-14T08:16:42;49.55;;;11.32;;
48849;SDS011;63210;53.370;6.770;2024-02-14T08:19:11;52.92;;;11.07;;
48849;SDS011;63210;53.370;6.770;2024-02-14T08:21:36;48.42;;;8.70;;
48849;SDS011;63210;53.370;6.770;2024-02-14T08:24:02;132.27;;;77.18;;
48849;SDS011;63210;53.370;6.770;2024-02-14T08:26:27;59.30;;;30.70;;
48849;SDS011;63210;53.370;6.770;2024-02-14T08:28:53;89.32;;;66.40;;
48849;SDS011;63210;53.370;6.770;2024-02-14T08:31:19;70.93;;;23.10;;
48849;SDS011;63210;53.370;6.770;2024-02-14T08:33:44;52.42;;;13.70;;
48849;SDS011;63210;53.370;6.770;2024-02-14T08:36:09;56.30;;;16.37;;
48849;SDS011;63210;53.370;6.770;2024-02-14T08:38:35;46.60;;;17.90;;
48849;SDS011;63210;53.370;6.770;2024-02-14T08:41:01;44.28;;;11.18;;
48849;SDS011;63210;53.370;6.770;2024-02-14T08:43:26;72.47;;;27.42;;
48849;SDS011;63210;53.370;6.770;2024-02-14T08:45:54;49.63;;;11.95;;
48849;SDS011;63210;53.370;6.770;2024-02-14T08:48:20;60.20;;;19.52;;
48849;SDS011;63210;53.370;6.770;2024-02-14T08:50:47;56.13;;;12.82;;
48849;SDS011;63210;53.370;6.770;2024-02-14T08:53:12;59.80;;;12.63;;
48849;SDS011;63210;53.370;6.770;2024-02-14T08:55:39;54.67;;;16.55;;
48849;SDS011;63210;53.370;6.770;2024-02-14T08:58:04;53.95;;;15.98;;
48849;SDS011;63210;53.370;6.770;2024-02-14T09:00:31;57.28;;;15.63;;
48849;SDS011;63210;53.370;6.770;2024-02-14T09:02:56;72.32;;;30.63;;
48849;SDS011;63210;53.370;6.770;2024-02-14T09:05:21;67.18;;;27.13;;
48849;SDS011;63210;53.370;6.770;2024-02-14T09:07:47;53.00;;;14.68;;
48849;SDS011;63210;53.370;6.770;2024-02-14T09:10:13;42.35;;;10.68;;
48849;SDS011;63210;53.370;6.770;2024-02-14T09:12:38;67.28;;;23.38;;
48849;SDS011;63210;53.370;6.770;2024-02-14T09:15:06;54.05;;;16.35;;
48849;SDS011;63210;53.370;6.770;2024-02-14T09:17:31;48.72;;;14.75;;
48849;SDS011;63210;53.370;6.770;2024-02-14T09:19:57;52.80;;;17.48;;
48849;SDS011;63210;53.370;6.770;2024-02-14T09:22:22;44.08;;;12.48;;
48849;SDS011;63210;53.370;6.770;2024-02-14T09:24:48;43.20;;;12.98;;
48849;SDS011;63210;53.370;6.770;2024-02-14T09:27:13;52.85;;;21.33;;
48849;SDS011;63210;53.370;6.770;2024-02-14T09:29:39;34.97;;;10.70;;
48849;SDS011;63210;53.370;6.770;2024-02-14T09:32:04;56.10;;;28.73;;
48849;SDS011;63210;53.370;6.770;2024-02-14T09:34:29;47.35;;;17.20;;
48849;SDS011;63210;53.370;6.770;2024-02-14T09:36:56;47.90;;;28.80;;
48849;SDS011;63210;53.370;6.770;2024-02-14T09:39:23;42.38;;;13.68;;
48849;SDS011;63210;53.370;6.770;2024-02-14T09:41:51;33.78;;;11.75;;
48849;SDS011;63210;53.370;6.770;2024-02-14T09:44:19;28.92;;;10.82;;
48849;SDS011;63210;53.370;6.770;2024-02-14T09:46:45;37.65;;;13.13;;
48849;SDS011;63210;53.370;6.770;2024-02-14T09:49:10;30.95;;;7.78;;
48849;SDS011;63210;53.370;6.770;2024-02-14T09:51:36;39.65;;;9.93;;
48849;SDS011;63210;53.370;6.770;2024-02-14T09:54:02;32.05;;;9.68;;
48849;SDS011;63210;53.370;6.770;2024-02-14T09:56:28;40.47;;;10.10;;
48849;SDS011;63210;53.370;6.770;2024-02-14T09:58:54;25.02;;;9.02;;
48849;SDS011;63210;53.370;6.770;2024-02-14T10:03:52;26.45;;;9.40;;
48849;SDS011;63210;53.370;6.770;2024-02-14T10:06:17;33.53;;;11.13;;
48849;SDS011;63210;53.370;6.770;2024-02-14T10:08:45;44.47;;;12.23;;
48849;SDS011;63210;53.370;6.770;2024-02-14T10:11:12;46.22;;;12.45;;
48849;SDS011;63210;53.370;6.770;2024-02-14T10:13:39;38.05;;;10.85;;
48849;SDS011;63210;53.370;6.770;2024-02-14T10:16:05;43.95;;;13.23;;
48849;SDS011;63210;53.370;6.770;2024-02-14T10:18:32;38.38;;;12.82;;
48849;SDS011;63210;53.370;6.770;2024-02-14T10:20:58;33.13;;;10.30;;
48849;SDS011;63210;53.370;6.770;2024-02-14T10:23:26;39.78;;;12.38;;
48849;SDS011;63210;53.370;6.770;2024-02-14T10:25:56;28.10;;;11.35;;
48849;SDS011;63210;53.370;6.770;2024-02-14T10:28:23;34.42;;;12.30;;
48849;SDS011;63210;53.370;6.770;2024-02-14T10:30:50;33.45;;;11.90;;
48849;SDS011;63210;53.370;6.770;2024-02-14T10:33:15;34.08;;;11.23;;
48849;SDS011;63210;53.370;6.770;2024-02-14T10:35:41;31.67;;;12.13;;
48849;SDS011;63210;53.370;6.770;2024-02-14T10:38:07;32.15;;;10.80;;
48849;SDS011;63210;53.370;6.770;2024-02-14T10:40:35;31.75;;;11.93;;
48849;SDS011;63210;53.370;6.770;2024-02-14T10:43:01;30.45;;;12.20;;
48849;SDS011;63210;53.370;6.770;2024-02-14T10:45:26;37.15;;;13.48;;
48849;SDS011;63210;53.370;6.770;2024-02-14T10:47:52;61.35;;;34.38;;
48849;SDS011;63210;53.370;6.770;2024-02-14T10:50:18;85.07;;;65.47;;
48849;SDS011;63210;53.370;6.770;2024-02-14T10:52:46;38.47;;;20.48;;
48849;SDS011;63210;53.370;6.770;2024-02-14T10:55:12;36.25;;;24.88;;
48849;SDS011;63210;53.370;6.770;2024-02-14T10:57:37;38.25;;;17.70;;
48849;SDS011;63210;53.370;6.770;2024-02-14T11:00:05;40.97;;;18.58;;
48849;SDS011;63210;53.370;6.770;2024-02-14T11:04:59;31.40;;;17.27;;
48849;SDS011;63210;53.370;6.770;2024-02-14T11:07:27;29.75;;;16.55;;
48849;SDS011;63210;53.370;6.770;2024-02-14T11:10:05;31.85;;;17.98;;
48849;SDS011;63210;53.370;6.770;2024-02-14T11:12:35;24.45;;;13.98;;
48849;SDS011;63210;53.370;6.770;2024-02-14T11:15:08;27.45;;;12.10;;
48849;SDS011;63210;53.370;6.770;2024-02-14T11:17:33;20.85;;;11.15;;
48849;SDS011;63210;53.370;6.770;2024-02-14T11:19:59;19.35;;;9.00;;
48849;SDS011;63210;53.370;6.770;2024-02-14T11:22:24;23.05;;;11.32;;
48849;SDS011;63210;53.370;6.770;2024-02-14T11:24:51;22.92;;;12.60;;
48849;SDS011;63210;53.370;6.770;2024-02-14T11:27:17;22.77;;;12.73;;
48849;SDS011;63210;53.370;6.770;2024-02-14T11:29:51;28.75;;;21.88;;
48849;SDS011;63210;53.370;6.770;2024-02-14T11:32:17;23.77;;;13.65;;
48849;SDS011;63210;53.370;6.770;2024-02-14T11:34:43;36.03;;;25.40;;
48849;SDS011;63210;53.370;6.770;2024-02-14T11:37:09;15.10;;;10.65;;
48849;SDS011;63210;53.370;6.770;2024-02-14T11:39:34;17.67;;;9.15;;
48849;SDS011;63210;53.370;6.770;2024-02-14T11:42:00;16.58;;;7.95;;
48849;SDS011;63210;53.370;6.770;2024-02-14T11:44:25;14.70;;;7.97;;
48849;SDS011;63210;53.370;6.770;2024-02-14T11:46:51;10.02;;;7.13;;
48849;SDS011;63210;53.370;6.770;2024-02-14T11:49:18;11.20;;;6.57;;
48849;SDS011;63210;53.370;6.770;2024-02-14T11:51:43;11.98;;;6.57;;
48849;SDS011;63210;53.370;6.770;2024-02-14T11:54:09;14.27;;;6.80;;
48849;SDS011;63210;53.370;6.770;2024-02-14T11:56:37;11.50;;;7.13;;
48849;SDS011;63210;53.370;6.770;2024-02-14T11:59:04;11.93;;;7.20;;
48849;SDS011;63210;53.370;6.770;2024-02-14T12:01:31;14.98;;;7.88;;
48849;SDS011;63210;53.370;6.770;2024-02-14T12:04:02;20.33;;;8.07;;
48849;SDS011;63210;53.370;6.770;2024-02-14T12:06:29;13.20;;;7.25;;
48849;SDS011;63210;53.370;6.770;2024-02-14T12:08:56;14.68;;;7.47;;
48849;SDS011;63210;53.370;6.770;2024-02-14T12:11:21;12.88;;;7.13;;
48849;SDS011;63210;53.370;6.770;2024-02-14T12:13:50;12.60;;;6.47;;
48849;SDS011;63210;53.370;6.770;2024-02-14T12:16:15;13.70;;;7.63;;
48849;SDS011;63210;53.370;6.770;2024-02-14T12:18:41;15.75;;;7.75;;
48849;SDS011;63210;53.370;6.770;2024-02-14T12:21:06;12.23;;;7.05;;
48849;SDS011;63210;53.370;6.770;2024-02-14T12:23:34;9.85;;;6.90;;
48849;SDS011;63210;53.370;6.770;2024-02-14T12:26:04;12.43;;;6.50;;
48849;SDS011;63210;53.370;6.770;2024-02-14T12:28:32;10.90;;;6.00;;
48849;SDS011;63210;53.370;6.770;2024-02-14T12:30:58;8.88;;;6.07;;
48849;SDS011;63210;53.370;6.770;2024-02-14T12:33:29;9.07;;;5.90;;
48849;SDS011;63210;53.370;6.770;2024-02-14T12:35:57;7.25;;;4.90;;
48849;SDS011;63210;53.370;6.770;2024-02-14T12:38:23;8.60;;;4.20;;
48849;SDS011;63210;53.370;6.770;2024-02-14T12:40:50;9.68;;;4.13;;
48849;SDS011;63210;53.370;6.770;2024-02-14T12:43:16;7.13;;;3.83;;
48849;SDS011;63210;53.370;6.770;2024-02-14T12:45:42;5.35;;;3.67;;
48849;SDS011;63210;53.370;6.770;2024-02-14T12:48:08;5.22;;;4.03;;
48849;SDS011;63210;53.370;6.770;2024-02-14T12:50:33;5.75;;;4.25;;
48849;SDS011;63210;53.370;6.770;2024-02-14T12:53:01;6.65;;;3.70;;
48849;SDS011;63210;53.370;6.770;2024-02-14T12:55:27;6.57;;;3.90;;
48849;SDS011;63210;53.370;6.770;2024-02-14T12:57:54;5.18;;;3.58;;
48849;SDS011;63210;53.370;6.770;2024-02-14T13:00:19;4.22;;;3.83;;
48849;SDS011;63210;53.370;6.770;2024-02-14T13:02:46;5.38;;;3.95;;
48849;SDS011;63210;53.370;6.770;2024-02-14T13:05:12;4.13;;;3.70;;
48849;SDS011;63210;53.370;6.770;2024-02-14T13:07:37;5.93;;;3.75;;
48849;SDS011;63210;53.370;6.770;2024-02-14T13:10:03;6.80;;;3.92;;
48849;SDS011;63210;53.370;6.770;2024-02-14T13:12:29;6.57;;;4.70;;
48849;SDS011;63210;53.370;6.770;2024-02-14T13:14:54;7.00;;;4.82;;
48849;SDS011;63210;53.370;6.770;2024-02-14T13:17:19;8.95;;;4.65;;
48849;SDS011;63210;53.370;6.770;2024-02-14T13:19:44;5.95;;;4.78;;
48849;SDS011;63210;53.370;6.770;2024-02-14T13:22:10;9.45;;;5.05;;
48849;SDS011;63210;53.370;6.770;2024-02-14T13:24:36;6.15;;;4.18;;
48849;SDS011;63210;53.370;6.770;2024-02-14T13:27:01;6.50;;;4.55;;
48849;SDS011;63210;53.370;6.770;2024-02-14T13:29:27;8.48;;;4.93;;
48849;SDS011;63210;53.370;6.770;2024-02-14T13:31:53;7.28;;;5.10;;
48849;SDS011;63210;53.370;6.770;2024-02-14T13:34:19;10.82;;;5.47;;
48849;SDS011;63210;53.370;6.770;2024-02-14T13:36:46;7.85;;;5.82;;
48849;SDS011;63210;53.370;6.770;2024-02-14T13:39:12;7.22;;;4.72;;
48849;SDS011;63210;53.370;6.770;2024-02-14T13:41:37;7.28;;;5.03;;
48849;SDS011;63210;53.370;6.770;2024-02-14T13:44:04;5.68;;;4.65;;
48849;SDS011;63210;53.370;6.770;2024-02-14T13:46:30;7.63;;;4.53;;
48849;SDS011;63210;53.370;6.770;2024-02-14T13:48:55;6.88;;;5.40;;
48849;SDS011;63210;53.370;6.770;2024-02-14T13:51:20;6.40;;;5.18;;
48849;SDS011;63210;53.370;6.770;2024-02-14T13:53:46;6.57;;;4.18;;
48849;SDS011;63210;53.370;6.770;2024-02-14T13:56:12;5.88;;;4.38;;
48849;SDS011;63210;53.370;6.770;2024-02-14T13:58:37;6.13;;;4.50;;
48849;SDS011;63210;53.370;6.770;2024-02-14T14:01:03;6.90;;;5.38;;
48849;SDS011;63210;53.370;6.770;2024-02-14T14:03:29;6.88;;;5.20;;
48849;SDS011;63210;53.370;6.770;2024-02-14T14:05:55;7.45;;;5.28;;
48849;SDS011;63210;53.370;6.770;2024-02-14T14:08:23;8.00;;;5.00;;
48849;SDS011;63210;53.370;6.770;2024-02-14T14:10:48;7.03;;;5.65;;
48849;SDS011;63210;53.370;6.770;2024-02-14T14:13:13;7.10;;;6.00;;
48849;SDS011;63210;53.370;6.770;2024-02-14T14:15:39;7.13;;;5.72;;
48849;SDS011;63210;53.370;6.770;2024-02-14T14:18:05;8.57;;;6.20;;
48849;SDS011;63210;53.370;6.770;2024-02-14T14:20:33;8.07;;;6.60;;
48849;SDS011;63210;53.370;6.770;2024-02-14T14:22:58;8.90;;;6.20;;
48849;SDS011;63210;53.370;6.770;2024-02-14T14:25:24;8.70;;;6.97;;
48849;SDS011;63210;53.370;6.770;2024-02-14T14:27:49;11.93;;;7.20;;
48849;SDS011;63210;53.370;6.770;2024-02-14T14:30:15;10.77;;;6.50;;